createdAt,value
2022-11-23T00:00:49.285Z,100949.56
2022-11-23T00:03:43.384Z,100945.28
2022-11-23T00:06:17.759Z,100946.50
2022-11-23T00:08:51.276Z,100941.09
2022-11-23T00:11:25.360Z,100940.41
2022-11-23T00:14:03.815Z,100944.59
2022-11-23T00:16:41.134Z,100940.09
2022-11-23T00:19:13.194Z,100939.44
2022-11-23T00:22:09.993Z,100932.56
2022-11-23T00:24:46.008Z,100933.34
2022-11-23T00:27:21.328Z,100930.59
2022-11-23T00:29:52.066Z,100929.16
2022-11-23T00:32:54.668Z,100930.69
2022-11-23T00:35:34.101Z,100916.06
2022-11-23T00:38:03.325Z,100918.31
2022-11-23T00:40:50.435Z,100921.25
2022-11-23T00:43:21.534Z,100918.28
2022-11-23T00:45:51.796Z,100918.06
2022-11-23T00:48:37.419Z,100917.63
2022-11-23T00:51:09.119Z,100915.16
2022-11-23T00:53:39.592Z,100908.06
2022-11-23T00:56:13.254Z,100913.38
2022-11-23T00:58:54.965Z,100904.25
2022-11-23T01:01:39.994Z,100893.34
2022-11-23T01:04:11.416Z,100898.06
2022-11-23T01:06:43.373Z,100901.81
2022-11-23T01:09:19.091Z,100898.84
2022-11-23T01:12:09.888Z,100888.34
2022-11-23T01:14:39.469Z,100886.59
2022-11-23T01:17:18.141Z,100889.97
2022-11-23T01:19:52.768Z,100890.88
2022-11-23T01:22:30.510Z,100883.13
2022-11-23T01:25:51.982Z,100887.19
2022-11-23T01:29:08.645Z,100884.81
2022-11-23T01:31:49.255Z,100885.97
2022-11-23T01:34:29.223Z,100882.75
2022-11-23T01:37:07.325Z,100881.66
2022-11-23T01:39:42.489Z,100883.25
2022-11-23T01:42:18.015Z,100879.44
2022-11-23T01:44:47.840Z,100871.84
2022-11-23T01:47:21.602Z,100868.22
2022-11-23T01:50:05.789Z,100877.66
2022-11-23T01:52:46.288Z,100877.06
2022-11-23T01:55:27.128Z,100882.38
2022-11-23T01:58:03.279Z,100886.88
2022-11-23T02:01:46.010Z,100888.59
2022-11-23T02:04:51.363Z,100884.41
2022-11-23T02:07:39.120Z,100895.16
2022-11-23T02:10:41.738Z,100896.38
2022-11-23T02:13:24.664Z,100883.06
2022-11-23T02:16:29.451Z,100889.25
2022-11-23T02:19:38.029Z,100885.19
2022-11-23T02:22:17.889Z,100890.91
2022-11-23T02:28:47.154Z,100883.63
2022-11-23T02:31:29.626Z,100878.63
2022-11-23T02:34:07.340Z,100889.28
2022-11-23T02:40:45.902Z,100883.41
2022-11-23T02:44:10.066Z,100879.78
2022-11-23T02:46:52.823Z,100876.94
2022-11-23T02:50:09.571Z,100879.72
2022-11-23T02:52:46.208Z,100885.59
2022-11-23T02:55:34.737Z,100877.63
2022-11-23T02:58:10.231Z,100882.97
2022-11-23T03:00:55.200Z,100884.75
2022-11-23T03:04:15.202Z,100888.09
2022-11-23T03:07:15.224Z,100886.66
2022-11-23T03:10:19.215Z,100881.72
2022-11-23T03:13:07.035Z,100886.41
2022-11-23T03:15:46.587Z,100884.53
2022-11-23T03:18:23.082Z,100878.75
2022-11-23T03:21:29.863Z,100891.03
2022-11-23T03:24:21.730Z,100883.31
2022-11-23T03:27:05.746Z,100887.78
2022-11-23T03:29:38.351Z,100883.69
2022-11-23T03:32:19.546Z,100880.44
2022-11-23T03:35:11.352Z,100865.25
2022-11-23T03:38:11.332Z,100875.00
2022-11-23T03:40:50.661Z,100867.78
2022-11-23T03:44:01.355Z,100865.84
2022-11-23T03:47:08.322Z,100869.00
2022-11-23T03:49:42.015Z,100866.84
2022-11-23T03:52:18.010Z,100872.84
2022-11-23T03:55:24.063Z,100870.69
2022-11-23T03:58:09.675Z,100876.19
2022-11-23T04:00:53.923Z,100870.22
2022-11-23T04:04:22.101Z,100863.94
2022-11-23T04:07:43.022Z,100872.88
2022-11-23T04:11:18.191Z,100858.75
2022-11-23T04:14:10.152Z,100871.47
2022-11-23T04:16:50.120Z,100867.22
2022-11-23T04:19:35.198Z,100855.44
2022-11-23T04:22:15.008Z,100854.41
2022-11-23T04:24:57.567Z,100851.69
2022-11-23T04:27:38.162Z,100855.34
2022-11-23T04:30:11.856Z,100846.72
2022-11-23T04:32:50.346Z,100852.19
2022-11-23T04:35:32.210Z,100854.06
2022-11-23T04:38:10.028Z,100856.03
2022-11-23T04:40:44.009Z,100851.66
2022-11-23T04:44:01.001Z,100842.84
2022-11-23T04:47:46.109Z,100841.47
2022-11-23T04:55:32.622Z,100836.06
2022-11-23T05:02:45.700Z,100824.75
2022-11-23T05:05:47.163Z,100824.94
2022-11-23T05:08:19.948Z,100826.38
2022-11-23T05:11:13.649Z,100825.78
2022-11-23T05:13:50.413Z,100837.06
2022-11-23T05:16:22.452Z,100833.06
2022-11-23T05:19:18.798Z,100840.19
2022-11-23T05:21:56.205Z,100830.53
2022-11-23T05:24:47.063Z,100831.13
2022-11-23T05:27:39.488Z,100826.56
2022-11-23T05:30:15.133Z,100824.63
2022-11-23T05:32:47.745Z,100820.44
2022-11-23T05:35:31.216Z,100823.53
2022-11-23T05:38:06.762Z,100822.69
2022-11-23T05:40:44.550Z,100813.44
2022-11-23T05:43:22.996Z,100820.84
2022-11-23T05:46:03.167Z,100815.94
2022-11-23T05:48:46.441Z,100824.88
2022-11-23T05:51:30.672Z,100813.19
2022-11-23T05:54:13.683Z,100817.13
2022-11-23T05:57:01.202Z,100817.69
2022-11-23T05:59:49.662Z,100811.91
2022-11-23T06:02:41.240Z,100812.72
2022-11-23T06:05:17.450Z,100811.06
2022-11-23T06:07:59.111Z,100809.78
2022-11-23T06:10:35.043Z,100815.97
2022-11-23T06:13:10.708Z,100811.44
2022-11-23T06:15:46.541Z,100804.44
2022-11-23T06:18:19.782Z,100800.69
2022-11-23T06:20:51.980Z,100806.44
2022-11-23T06:23:32.088Z,100807.94
2022-11-23T06:26:09.357Z,100810.44
2022-11-23T06:28:41.477Z,100812.72
2022-11-23T06:31:13.561Z,100808.56
2022-11-23T06:33:46.734Z,100809.75
2022-11-23T06:36:18.708Z,100807.88
2022-11-23T06:39:02.435Z,100806.16
2022-11-23T06:41:44.203Z,100812.72
2022-11-23T06:44:18.964Z,100821.56
2022-11-23T06:46:53.779Z,100819.19
2022-11-23T06:49:39.071Z,100824.94
2022-11-23T06:52:46.662Z,100823.03
2022-11-23T06:55:22.765Z,100835.00
2022-11-23T06:58:10.017Z,100825.31
2022-11-23T07:00:42.971Z,100829.47
2022-11-23T07:03:29.332Z,100840.66
2022-11-23T07:10:02.648Z,100831.63
2022-11-23T07:13:01.175Z,100834.00
2022-11-23T07:15:41.849Z,100835.91
2022-11-23T07:18:17.404Z,100834.41
2022-11-23T07:21:15.394Z,100822.94
2022-11-23T07:24:18.064Z,100828.53
2022-11-23T07:26:49.691Z,100825.47
2022-11-23T07:29:33.059Z,100828.31
2022-11-23T07:32:18.629Z,100833.97
2022-11-23T07:34:49.870Z,100837.75
2022-11-23T07:37:39.717Z,100837.03
2022-11-23T07:40:21.323Z,100827.97
2022-11-23T07:43:15.974Z,100840.94
2022-11-23T07:46:07.374Z,100843.41
2022-11-23T07:48:50.895Z,100852.00
2022-11-23T07:51:52.035Z,100858.38
2022-11-23T07:54:31.549Z,100856.78
2022-11-23T07:57:07.344Z,100858.47
2022-11-23T07:59:39.383Z,100851.94
2022-11-23T08:02:19.332Z,100857.22
2022-11-23T08:04:53.285Z,100860.34
2022-11-23T08:07:31.968Z,100865.78
2022-11-23T08:10:07.329Z,100869.72
2022-11-23T08:12:42.064Z,100862.53
2022-11-23T08:15:18.382Z,100866.09
2022-11-23T08:17:50.375Z,100865.50
2022-11-23T08:20:33.843Z,100866.06
2022-11-23T08:23:08.020Z,100865.97
2022-11-23T08:25:43.509Z,100862.47
2022-11-23T08:28:19.521Z,100860.38
2022-11-23T08:31:10.187Z,100855.22
2022-11-23T08:33:45.891Z,100858.34
2022-11-23T08:36:51.525Z,100847.59
2022-11-23T08:40:23.584Z,100854.47
2022-11-23T08:46:50.434Z,100858.16
2022-11-23T08:49:23.167Z,100860.28
2022-11-23T08:52:06.006Z,100861.13
2022-11-23T08:54:37.346Z,100854.03
2022-11-23T08:57:23.667Z,100851.53
2022-11-23T09:00:18.454Z,100849.38
2022-11-23T09:02:49.609Z,100844.75
2022-11-23T09:05:33.655Z,100847.63
2022-11-23T09:08:23.054Z,100849.59
2022-11-23T09:14:50.424Z,100851.22
2022-11-23T09:18:04.793Z,100851.28
2022-11-23T09:25:30.277Z,100853.38
2022-11-23T09:28:52.067Z,100856.81
2022-11-23T09:31:36.097Z,100857.09
2022-11-23T09:34:25.439Z,100856.16
2022-11-23T09:37:44.840Z,100848.47
2022-11-23T09:40:35.455Z,100848.69
2022-11-23T09:43:38.264Z,100842.78
2022-11-23T09:46:45.928Z,100857.13
2022-11-23T09:49:22.932Z,100842.50
2022-11-23T09:52:11.997Z,100853.09
2022-11-23T09:54:47.028Z,100854.88
2022-11-23T09:57:30.622Z,100848.38
2022-11-23T10:00:24.516Z,100852.22
2022-11-23T10:03:18.436Z,100859.94
2022-11-23T10:06:34.859Z,100853.19
2022-11-23T10:09:47.229Z,100857.13
2022-11-23T10:12:42.463Z,100853.47
2022-11-23T10:15:13.873Z,100866.25
2022-11-23T10:18:38.138Z,100864.66
2022-11-23T10:21:40.311Z,100861.69
2022-11-23T10:24:37.778Z,100865.81
2022-11-23T10:30:20.344Z,100870.66
2022-11-23T10:33:07.776Z,100870.03
2022-11-23T10:35:54.658Z,100888.13
2022-11-23T10:38:36.030Z,100886.44
2022-11-23T10:41:14.378Z,100886.34
2022-11-23T10:44:23.904Z,100894.13
2022-11-23T10:48:17.164Z,100895.41
2022-11-23T10:51:38.560Z,100893.63
2022-11-23T10:55:18.715Z,100896.69
2022-11-23T10:58:27.555Z,100893.97
2022-11-23T11:01:09.190Z,100910.41
2022-11-23T11:03:55.390Z,100905.34
2022-11-23T11:06:40.276Z,100903.84
2022-11-23T11:09:38.768Z,100906.59
2022-11-23T11:12:34.257Z,100899.91
2022-11-23T11:15:14.438Z,100901.41
2022-11-23T11:18:14.063Z,100906.25
2022-11-23T11:20:50.402Z,100902.53
2022-11-23T11:23:54.570Z,100915.50
2022-11-23T11:26:41.650Z,100909.59
2022-11-23T11:29:39.319Z,100916.28
2022-11-23T11:32:34.757Z,100921.53
2022-11-23T11:35:40.013Z,100922.19
2022-11-23T11:39:07.810Z,100932.41
2022-11-23T11:42:19.011Z,100933.00
2022-11-23T11:44:59.664Z,100935.00
2022-11-23T11:47:55.108Z,100933.59
2022-11-23T11:51:12.440Z,100930.41
2022-11-23T11:54:31.568Z,100930.53
2022-11-23T11:58:02.547Z,100934.38
2022-11-23T12:00:51.843Z,100936.03
2022-11-23T12:04:19.822Z,100938.16
2022-11-23T12:07:47.071Z,100930.00
2022-11-23T12:11:10.821Z,100937.31
2022-11-23T12:18:35.380Z,100937.88
2022-11-23T12:21:56.207Z,100942.47
2022-11-23T12:25:25.667Z,100947.19
2022-11-23T12:28:23.358Z,100955.81
2022-11-23T12:31:34.035Z,100960.16
2022-11-23T12:34:55.630Z,100950.47
2022-11-23T12:38:06.503Z,100955.72
2022-11-23T12:40:50.244Z,100958.94
2022-11-23T12:43:55.751Z,100961.00
2022-11-23T12:46:50.584Z,100968.53
2022-11-23T12:49:46.726Z,100967.94
2022-11-23T12:52:46.621Z,100975.00
2022-11-23T12:55:34.804Z,100976.22
2022-11-23T12:58:18.534Z,100984.03
2022-11-23T13:01:18.479Z,100988.25
2022-11-23T13:04:39.195Z,100985.41
2022-11-23T13:07:55.088Z,100992.66
2022-11-23T13:11:14.136Z,100995.19
2022-11-23T13:14:23.757Z,100995.47
2022-11-23T13:17:40.220Z,100998.63
2022-11-23T13:20:41.377Z,101000.34
2022-11-23T13:23:13.908Z,100995.47
2022-11-23T13:26:15.906Z,101001.59
2022-11-23T13:28:50.436Z,101003.31
2022-11-23T13:31:37.412Z,101007.31
2022-11-23T13:34:49.782Z,101005.13
2022-11-23T13:37:26.630Z,101003.06
2022-11-23T13:40:10.225Z,101008.34
2022-11-23T13:42:40.702Z,101003.47
2022-11-23T13:45:36.135Z,101011.88
2022-11-23T13:48:34.206Z,101012.28
2022-11-23T13:51:03.409Z,101013.97
2022-11-23T13:53:42.496Z,101007.81
2022-11-23T13:56:31.782Z,101007.69
2022-11-23T13:59:19.293Z,101009.06
2022-11-23T14:02:13.687Z,101010.34
2022-11-23T14:04:55.077Z,101017.22
2022-11-23T14:07:43.923Z,101014.97
2022-11-23T14:10:23.228Z,101020.97
2022-11-23T14:13:30.052Z,101019.13
2022-11-23T14:16:06.359Z,101009.31
2022-11-23T14:18:51.497Z,101015.78
2022-11-23T14:21:49.764Z,101027.22
2022-11-23T14:24:24.440Z,101017.63
2022-11-23T14:27:53.218Z,101023.44
2022-11-23T14:30:47.485Z,101026.94
2022-11-23T14:33:43.569Z,101031.25
2022-11-23T14:36:14.996Z,101022.13
2022-11-23T14:38:58.598Z,101027.13
2022-11-23T14:41:46.733Z,101024.81
2022-11-23T14:44:19.674Z,101029.69
2022-11-23T14:47:06.191Z,101023.69
2022-11-23T14:49:52.264Z,101023.72
2022-11-23T14:52:37.914Z,101019.13
2022-11-23T14:55:54.722Z,101028.03
2022-11-23T14:58:35.501Z,101026.88
2022-11-23T15:01:21.450Z,101023.28
2022-11-23T15:04:10.062Z,101020.31
2022-11-23T15:06:47.836Z,101026.72
2022-11-23T15:09:59.280Z,101031.59
2022-11-23T15:12:46.001Z,101026.16
2022-11-23T15:15:24.978Z,101030.03
2022-11-23T15:18:03.569Z,101026.25
2022-11-23T15:20:43.466Z,101028.75
2022-11-23T15:23:26.380Z,101021.38
2022-11-23T15:25:58.993Z,101018.66
2022-11-23T15:28:33.411Z,101023.72
2022-11-23T15:31:23.496Z,101017.78
2022-11-23T15:34:05.412Z,101015.88
2022-11-23T15:36:39.645Z,101012.91
2022-11-23T15:39:19.270Z,101010.25
2022-11-23T15:41:48.290Z,101014.13
2022-11-23T15:44:38.264Z,101013.34
2022-11-23T15:47:19.897Z,101014.47
2022-11-23T15:49:54.688Z,101013.78
2022-11-23T15:52:38.461Z,101015.72
2022-11-23T15:55:20.411Z,101005.81
2022-11-23T15:58:11.243Z,101009.75
2022-11-23T16:01:11.650Z,100999.66
2022-11-23T16:04:19.816Z,101001.53
2022-11-23T16:06:54.101Z,100996.91
2022-11-23T16:15:36.546Z,100986.56
2022-11-23T16:22:30.238Z,100992.78
2022-11-23T16:25:33.985Z,100984.88
2022-11-23T16:28:22.267Z,100983.00
2022-11-23T16:30:55.498Z,100980.28
2022-11-23T16:33:31.780Z,100980.75
2022-11-23T16:36:03.685Z,100981.06
2022-11-23T16:38:36.145Z,100971.91
2022-11-23T16:41:09.715Z,100976.88
2022-11-23T16:43:41.983Z,100963.41
2022-11-23T16:46:12.148Z,100966.94
2022-11-23T16:48:46.350Z,100958.91
2022-11-23T16:51:42.529Z,100961.91
2022-11-23T16:55:06.257Z,100956.19
2022-11-23T16:57:40.349Z,100946.78
2022-11-23T17:00:27.994Z,100957.25
2022-11-23T17:03:01.977Z,100955.59
2022-11-23T17:05:34.211Z,100948.84
2022-11-23T17:08:04.249Z,100942.31
2022-11-23T17:10:40.768Z,100945.59
2022-11-23T17:13:35.115Z,100948.28
2022-11-23T17:22:15.904Z,100949.88
2022-11-23T17:25:43.064Z,100942.25
2022-11-23T17:28:36.868Z,100937.06
2022-11-23T17:31:33.858Z,100937.53
2022-11-23T17:34:43.916Z,100930.94
2022-11-23T17:42:32.550Z,100929.28
2022-11-23T17:49:50.543Z,100913.22
2022-11-23T18:16:54.261Z,100882.06
2022-11-23T18:19:35.143Z,100884.19
2022-11-23T18:22:09.700Z,100874.16
2022-11-23T18:24:41.779Z,100870.66
2022-11-23T18:27:14.743Z,100868.63
2022-11-23T18:29:43.941Z,100862.38
2022-11-23T18:32:15.931Z,100863.28
2022-11-23T18:34:49.962Z,100864.91
2022-11-23T18:37:27.717Z,100856.16
2022-11-23T18:40:06.734Z,100853.00
2022-11-23T18:42:41.603Z,100851.63
2022-11-23T18:45:12.792Z,100847.97
2022-11-23T18:47:43.963Z,100850.88
2022-11-23T18:50:19.949Z,100855.03
2022-11-23T18:53:11.669Z,100850.91
2022-11-23T18:55:42.877Z,100854.25
2022-11-23T18:58:12.095Z,100850.66
2022-11-23T19:00:46.571Z,100848.00
2022-11-23T19:03:15.941Z,100856.25
2022-11-23T19:05:51.375Z,100842.75
2022-11-23T19:08:29.525Z,100848.75
2022-11-23T19:11:30.625Z,100845.06
2022-11-23T19:14:04.612Z,100840.50
2022-11-23T19:16:37.859Z,100835.09
2022-11-23T19:19:09.760Z,100836.97
2022-11-23T19:21:46.515Z,100832.41
2022-11-23T19:24:16.143Z,100838.25
2022-11-23T19:26:54.212Z,100827.84
2022-11-23T19:29:29.684Z,100821.34
2022-11-23T19:32:38.490Z,100817.84
2022-11-23T19:35:32.748Z,100822.53
2022-11-23T19:39:01.891Z,100825.84
2022-11-23T19:41:48.476Z,100835.34
2022-11-23T19:44:27.940Z,100828.69
2022-11-23T19:47:16.345Z,100832.25
2022-11-23T19:50:04.443Z,100823.28
2022-11-23T19:53:19.987Z,100820.16
2022-11-23T19:59:10.204Z,100824.09
2022-11-23T20:06:45.793Z,100827.41
2022-11-23T20:09:22.972Z,100831.09
2022-11-23T20:11:57.240Z,100825.03
2022-11-23T20:14:31.720Z,100827.75
2022-11-23T20:17:38.078Z,100826.66
2022-11-23T20:20:15.370Z,100834.31
2022-11-23T20:32:09.401Z,100846.66
2022-11-23T20:34:42.721Z,100839.50
2022-11-23T20:37:11.809Z,100850.69
2022-11-23T20:39:42.477Z,100850.69
2022-11-23T20:42:22.058Z,100852.38
2022-11-23T20:44:54.832Z,100851.34
2022-11-23T20:47:43.258Z,100860.50
2022-11-23T20:50:14.424Z,100872.47
2022-11-23T20:52:46.517Z,100882.41
2022-11-23T20:55:31.754Z,100875.63
2022-11-23T20:58:19.710Z,100880.59
2022-11-23T21:00:52.076Z,100881.59
2022-11-23T21:03:23.636Z,100887.66
2022-11-23T21:06:12.490Z,100894.69
2022-11-23T21:08:48.061Z,100895.50
2022-11-23T21:11:54.495Z,100893.06
2022-11-23T21:14:48.246Z,100889.66
2022-11-23T21:17:36.443Z,100893.03
2022-11-23T21:20:18.929Z,100895.09
2022-11-23T21:22:55.394Z,100890.75
2022-11-23T21:25:39.215Z,100899.22
2022-11-23T21:28:13.160Z,100907.38
2022-11-23T21:30:48.259Z,100905.16
2022-11-23T21:33:23.734Z,100909.50
2022-11-23T21:36:14.917Z,100905.75
2022-11-23T21:38:48.244Z,100905.22
2022-11-23T21:41:24.300Z,100904.25
2022-11-23T21:44:02.717Z,100916.34
2022-11-23T22:31:00.235Z,100942.81
2022-11-23T22:33:59.137Z,100950.38
2022-11-23T22:36:44.753Z,100948.69
2022-11-23T22:39:54.815Z,100948.75
2022-11-23T22:46:47.770Z,100953.09
2022-11-23T22:50:03.918Z,100947.13
2022-11-23T22:54:22.857Z,100949.63
2022-11-23T22:58:24.190Z,100954.09
2022-11-23T23:12:15.053Z,100960.22
2022-11-23T23:14:50.956Z,100961.22
